Time;durP1;ratioP1;P1;durP2;ratioP2;P2;SDS_P1;SDS_P2;PMS_P1;PMS_P2;Temp;Humidity;BMP_temperature;BMP_pressure;BME280_temperature;BME280_humidity;BME280_pressure;Samples;Min_cycle;Max_cycle;Signal;HPM_P1;HPM_P2
2021/10/12 09:40:44;;;;;;;8.95;5.57;;;;;;;23.22;31.54;100668.88;5027095;27;20165;-55
2021/10/12 09:43:10;;;;;;;7.63;5.32;;;;;;;23.47;30.81;100674.69;5018779;28;20075;-47
2021/10/12 09:45:40;;;;;;;8.23;5.85;;;;;;;23.69;30.77;100664.69;5018153;28;20033;-53
2021/10/12 09:48:31;;;;;;;5.97;4.45;;;;;;;23.90;30.68;100670.41;5014954;28;21742;-54
2021/10/12 09:51:10;;;;;;;6.53;5.10;;;;;;;24.07;30.55;100661.13;5003446;28;20038;-55
2021/10/12 09:53:36;;;;;;;8.00;4.95;;;;;;;24.19;30.33;100658.25;5001787;28;20033;-53
2021/10/12 09:56:02;;;;;;;5.88;4.38;;;;;;;24.31;30.07;100658.97;5007327;28;20044;-52
2021/10/12 09:58:30;;;;;;;7.57;4.93;;;;;;;24.42;30.00;100667.22;5010325;28;20029;-52
2021/10/12 10:00:57;;;;;;;8.88;5.38;;;;;;;24.48;29.51;100652.59;5019644;28;20087;-50
2021/10/12 10:03:23;;;;;;;7.50;5.05;;;;;;;24.57;29.65;100653.75;5003075;28;20029;-52
2021/10/12 10:05:48;;;;;;;8.23;5.30;;;;;;;24.62;29.39;100660.09;4998680;28;20726;-54
2021/10/12 10:08:14;;;;;;;5.60;4.63;;;;;;;24.71;29.20;100655.00;5010784;28;20086;-52
2021/10/12 10:10:40;;;;;;;5.95;5.15;;;;;;;24.77;29.40;100655.88;5023798;28;20037;-51
2021/10/12 10:13:06;;;;;;;8.20;4.53;;;;;;;24.81;29.43;100660.53;5024744;28;20083;-52
2021/10/12 10:15:34;;;;;;;6.40;4.32;;;;;;;24.85;28.99;100652.66;4989234;28;20234;-51
2021/10/12 10:18:00;;;;;;;;;;;;;;;24.90;28.99;100650.81;5020751;28;20056;-58
2021/10/12 10:20:28;;;;;;;7.75;5.28;;;;;;;24.89;28.21;100651.09;5013778;28;21897;-51
2021/10/12 10:22:57;;;;;;;7.32;5.70;;;;;;;24.89;27.62;100641.00;4997624;28;20394;-53
2021/10/12 10:25:26;;;;;;;8.38;5.45;;;;;;;24.91;27.38;100644.28;5012566;28;20033;-54
2021/10/12 10:27:53;;;;;;;7.82;5.70;;;;;;;24.90;27.43;100648.09;5021856;28;20167;-49
2021/10/12 10:30:20;;;;;;;6.53;5.47;;;;;;;24.90;27.29;100648.09;5020194;28;20110;-52
2021/10/12 10:32:47;;;;;;;6.22;4.82;;;;;;;24.90;26.73;100641.81;5017593;28;20939;-48
2021/10/12 10:35:14;;;;;;;6.65;5.18;;;;;;;24.89;26.84;100641.00;5013987;28;20041;-52
2021/10/12 10:37:40;;;;;;;7.57;5.32;;;;;;;24.90;26.72;100639.91;5015916;28;21795;-51
2021/10/12 10:42:41;;;;;;;9.40;5.43;;;;;;;24.96;26.89;100641.59;4979925;28;20163;-53
2021/10/12 10:45:08;;;;;;;8.20;4.68;;;;;;;24.97;27.01;100639.69;4975148;28;20046;-59
2021/10/12 10:47:50;;;;;;;5.97;5.30;;;;;;;25.06;27.09;100645.50;4960560;28;20147;-57
2021/10/12 10:50:29;;;;;;;6.88;5.32;;;;;;;25.10;27.15;100641.16;4988514;28;20038;-59
2021/10/12 10:52:59;;;;;;;8.75;5.70;;;;;;;25.08;26.81;100632.44;4978047;28;20052;-52
2021/10/12 10:55:28;;;;;;;8.65;5.57;;;;;;;25.09;26.33;100643.06;4971199;28;20042;-57
2021/10/12 10:58:16;;;;;;;9.70;5.05;;;;;;;25.12;25.94;100645.28;4961974;28;20084;-58
2021/10/12 11:00:42;;;;;;;8.88;5.40;;;;;;;25.11;26.53;100640.91;4961141;28;20220;-58
2021/10/12 11:03:36;;;;;;;8.15;5.15;;;;;;;25.16;26.13;100648.31;4941179;28;20445;-57
2021/10/12 11:06:19;;;;;;;12.82;6.47;;;;;;;25.13;25.84;100636.00;4961857;28;20188;-57
2021/10/12 11:09:03;;;;;;;8.30;5.05;;;;;;;25.16;25.55;100634.69;4969294;28;20499;-58
2021/10/12 11:11:35;;;;;;;10.82;5.80;;;;;;;25.13;25.19;100633.28;4953918;28;20041;-57
2021/10/12 11:14:02;;;;;;;6.97;5.75;;;;;;;25.11;25.79;100631.91;4967878;28;20799;-52
2021/10/12 11:16:35;;;;;;;9.40;6.25;;;;;;;25.15;26.02;100633.03;4950670;28;20048;-58
2021/10/12 11:19:01;;;;;;;7.45;5.93;;;;;;;25.15;25.99;100633.03;4965827;28;20075;-56
2021/10/12 11:21:26;;;;;;;11.73;5.70;;;;;;;25.17;26.33;100631.72;4963827;28;20682;-53
2021/10/12 11:23:54;;;;;;;8.35;5.13;;;;;;;25.20;26.39;100630.38;4966303;28;20085;-52
2021/10/12 11:26:21;;;;;;;7.50;5.25;;;;;;;25.23;26.45;100629.84;4951759;28;20463;-56
2021/10/12 11:28:54;;;;;;;11.95;6.18;;;;;;;25.25;26.43;100617.59;4965304;28;20096;-57
2021/10/12 11:31:21;;;;;;;7.15;5.25;;;;;;;25.26;26.56;100630.13;4959587;28;20406;-56
2021/10/12 11:33:48;;;;;;;8.15;5.38;;;;;;;25.28;26.61;100618.97;4965850;28;20498;-57
2021/10/12 11:36:16;;;;;;;9.90;4.85;;;;;;;25.31;26.77;100621.97;4971897;28;20034;-52
2021/10/12 11:38:55;;;;;;;10.70;5.13;;;;;;;25.35;26.96;100627.72;4965680;28;20522;-56
2021/10/12 11:41:25;;;;;;;8.15;5.22;;;;;;;25.36;26.82;100618.44;4967423;28;20820;-55
2021/10/12 11:43:53;;;;;;;6.10;4.85;;;;;;;25.37;26.75;100622.00;4969071;28;20034;-58
2021/10/12 11:46:33;;;;;;;7.03;5.63;;;;;;;25.40;26.87;100624.19;4966227;28;20043;-53
2021/10/12 11:49:19;;;;;;;6.38;5.25;;;;;;;25.42;26.79;100620.13;4958114;28;20042;-48
2021/10/12 11:51:46;;;;;;;6.97;4.93;;;;;;;25.38;26.93;100621.72;4965253;28;20049;-55
2021/10/12 11:54:12;;;;;;;6.30;4.87;;;;;;;25.40;26.86;100614.09;4947183;28;20030;-54
2021/10/12 11:56:38;;;;;;;7.00;4.90;;;;;;;25.40;26.93;100616.84;4949368;28;20057;-56
2021/10/12 11:59:10;;;;;;;7.70;5.32;;;;;;;25.41;26.78;100615.75;4936244;28;20490;-52
2021/10/12 12:01:42;;;;;;;8.10;5.38;;;;;;;25.42;27.15;100609.22;4948509;28;20050;-53
2021/10/12 12:04:09;;;;;;;7.20;4.50;;;;;;;25.42;27.21;100611.13;4951483;28;20095;-51
2021/10/12 12:06:35;;;;;;;7.03;4.60;;;;;;;25.43;27.12;100608.13;4948301;28;21777;-54
2021/10/12 12:09:22;;;;;;;6.03;4.63;;;;;;;25.48;27.23;100616.34;4965626;28;20078;-54
2021/10/12 12:11:48;;;;;;;5.50;4.60;;;;;;;25.46;27.27;100607.63;4950651;28;20043;-58
2021/10/12 12:14:13;;;;;;;6.90;4.88;;;;;;;25.45;27.36;100616.88;4934614;28;20028;-56
2021/10/12 12:16:39;;;;;;;5.63;4.38;;;;;;;25.48;27.55;100610.09;4913554;28;20144;-56
2021/10/12 12:19:44;;;;;;;7.15;4.97;;;;;;;25.53;27.42;100612.84;4942632;28;20507;-59
2021/10/12 12:22:18;;;;;;;9.82;4.57;;;;;;;25.51;27.73;100613.09;4964575;28;20042;-57
2021/10/12 12:24:57;;;;;;;9.05;4.80;;;;;;;25.46;27.67;100598.63;4952397;28;20046;-57
2021/10/12 12:27:23;;;;;;;9.02;5.70;;;;;;;25.51;27.60;100604.91;4945735;28;20402;-56
2021/10/12 12:30:09;;;;;;;7.13;4.78;;;;;;;25.54;27.68;100600.84;4940693;28;20031;-51
2021/10/12 12:32:37;;;;;;;8.38;4.85;;;;;;;25.52;27.57;100600.28;4945526;28;20110;-57
2021/10/12 12:35:03;;;;;;;7.03;5.20;;;;;;;25.52;27.56;100601.09;4937649;28;20099;-57
2021/10/12 12:37:28;;;;;;;7.45;4.22;;;;;;;25.51;27.48;100596.75;4946669;28;20068;-59
2021/10/12 12:39:54;;;;;;;5.60;4.18;;;;;;;25.51;27.55;100594.00;4940269;28;21840;-54
2021/10/12 12:42:35;;;;;;;6.93;4.53;;;;;;;25.53;27.50;100591.84;4928009;28;20042;-55
2021/10/12 12:45:15;;;;;;;7.97;5.10;;;;;;;25.54;27.42;100598.09;4920801;28;20067;-56
2021/10/12 12:47:55;;;;;;;7.40;4.55;;;;;;;25.55;27.30;100605.22;4927401;28;20031;-55
2021/10/12 12:50:25;;;;;;;6.80;4.47;;;;;;;25.53;27.43;100602.75;4876903;28;20031;-56
2021/10/12 12:52:52;;;;;;;6.38;4.55;;;;;;;25.52;27.25;100603.84;4944486;28;20118;-58
2021/10/12 12:55:40;;;;;;;7.32;4.53;;;;;;;25.55;27.37;100606.03;4948070;28;20031;-59
2021/10/12 12:58:07;;;;;;;5.40;4.38;;;;;;;25.51;27.43;100615.81;4950429;28;20042;-57
2021/10/12 13:00:37;;;;;;;7.32;4.95;;;;;;;25.49;27.39;100601.63;4947405;28;20031;-56
2021/10/12 13:03:05;;;;;;;7.47;4.68;;;;;;;25.49;27.32;100607.09;4937763;28;20452;-55
2021/10/12 13:05:31;;;;;;;5.18;4.28;;;;;;;25.48;27.25;100610.91;4952577;28;20041;-57
2021/10/12 13:07:56;;;;;;;5.32;3.95;;;;;;;25.49;27.69;100622.63;4947644;28;20827;-57
2021/10/12 13:10:22;;;;;;;8.02;4.50;;;;;;;25.48;26.73;100613.63;4952525;28;20038;-58
2021/10/12 13:12:48;;;;;;;5.95;4.88;;;;;;;25.46;27.35;100615.81;4966281;28;20044;-56
2021/10/12 13:15:14;;;;;;;5.45;4.10;;;;;;;25.47;27.39;100614.72;4932221;28;20132;-54
2021/10/12 13:17:40;;;;;;;7.03;4.57;;;;;;;25.46;27.15;100618.53;4949062;28;20034;-55
2021/10/12 13:20:06;;;;;;;8.55;4.60;;;;;;;25.44;27.14;100617.94;4950744;28;20050;-55
2021/10/12 13:22:32;;;;;;;6.70;4.85;;;;;;;25.47;27.26;100619.34;4925524;28;20145;-54
2021/10/12 13:24:58;;;;;;;6.45;3.90;;;;;;;25.46;27.40;100620.44;4949590;28;20038;-55
2021/10/12 13:27:23;;;;;;;6.25;5.05;;;;;;;25.47;27.21;100619.34;4946954;28;20043;-57
2021/10/12 13:29:49;;;;;;;6.05;4.75;;;;;;;25.45;27.57;100622.34;4953050;28;20100;-54
2021/10/12 13:32:16;;;;;;;5.45;4.47;;;;;;;25.47;27.32;100622.06;4953654;28;20038;-57
2021/10/12 13:34:44;;;;;;;7.40;4.57;;;;;;;25.47;27.62;100624.81;4948715;28;20058;-56
2021/10/12 13:37:10;;;;;;;5.57;4.43;;;;;;;25.48;27.55;100621.00;4943457;28;20481;-56
2021/10/12 13:39:36;;;;;;;6.72;4.05;;;;;;;25.46;27.43;100623.97;4921612;28;20127;-56
2021/10/12 13:42:02;;;;;;;7.43;4.90;;;;;;;25.46;27.65;100621.25;4942171;28;20038;-53
2021/10/12 13:44:27;;;;;;;5.93;4.40;;;;;;;25.46;27.41;100626.72;4945673;28;20053;-56
2021/10/12 13:46:53;;;;;;;7.38;5.00;;;;;;;25.45;27.34;100624.25;4950636;28;20100;-56
2021/10/12 13:49:19;;;;;;;5.72;4.30;;;;;;;25.44;27.70;100620.66;4944331;28;20058;-54
2021/10/12 13:51:45;;;;;;;7.07;4.65;;;;;;;25.42;27.64;100622.84;4944253;28;20038;-54
2021/10/12 13:54:10;;;;;;;6.28;4.40;;;;;;;25.42;27.53;100624.75;4929442;28;20042;-55
2021/10/12 13:56:36;;;;;;;6.05;4.55;;;;;;;25.42;27.55;100625.56;4943428;28;20038;-54
2021/10/12 13:59:01;;;;;;;7.70;4.43;;;;;;;25.42;27.64;100616.56;4931566;28;20085;-55
2021/10/12 14:01:27;;;;;;;8.05;4.32;;;;;;;25.42;27.55;100620.13;4925899;28;20057;-55
2021/10/12 14:03:54;;;;;;;5.88;4.25;;;;;;;25.43;27.57;100624.47;4941009;28;20043;-55
2021/10/12 14:06:20;;;;;;;5.60;4.40;;;;;;;25.42;27.78;100619.28;4947744;28;20083;-54
2021/10/12 14:08:45;;;;;;;7.43;4.85;;;;;;;25.42;27.90;100620.13;4954310;28;20454;-56
2021/10/12 14:11:13;;;;;;;6.45;5.00;;;;;;;25.42;27.88;100628.28;4957958;28;20042;-57
2021/10/12 14:13:39;;;;;;;8.57;4.75;;;;;;;25.43;27.88;100629.13;4949134;28;20032;-55
2021/10/12 14:16:05;;;;;;;8.82;4.13;;;;;;;25.42;27.92;100617.38;4946530;28;20035;-56
2021/10/12 14:18:31;;;;;;;8.45;5.18;;;;;;;25.43;27.89;100624.47;4948353;28;20042;-54
2021/10/12 14:20:56;;;;;;;7.70;4.45;;;;;;;25.38;27.34;100619.00;4948277;28;20082;-59
2021/10/12 14:23:22;;;;;;;5.90;4.50;;;;;;;25.40;25.93;100619.56;4946204;28;20030;-57
2021/10/12 14:25:48;;;;;;;10.73;5.45;;;;;;;25.37;25.54;100624.72;4948156;28;20038;-58
2021/10/12 14:28:14;;;;;;;10.40;5.65;;;;;;;25.32;25.50;100617.34;4993079;28;20554;-47
2021/10/12 14:30:45;;;;;;;6.90;5.30;;;;;;;25.28;25.42;100617.06;4953413;28;20031;-51
2021/10/12 14:33:11;;;;;;;9.00;4.95;;;;;;;25.25;25.02;100630.38;4952578;28;20092;-50
2021/10/12 14:35:37;;;;;;;7.07;4.95;;;;;;;25.23;25.42;100619.75;4935716;28;20035;-48
2021/10/12 14:38:04;;;;;;;7.22;4.57;;;;;;;25.22;25.27;100622.75;4960007;28;20045;-54
2021/10/12 14:40:30;;;;;;;8.07;4.75;;;;;;;25.21;24.84;100618.38;4955559;28;20034;-50
2021/10/12 14:42:55;;;;;;;6.10;4.75;;;;;;;25.18;24.61;100630.63;4955898;28;20046;-52
2021/10/12 14:45:21;;;;;;;6.97;4.65;;;;;;;25.17;24.59;100625.44;4955235;28;20778;-54
2021/10/12 14:47:47;;;;;;;9.63;5.15;;;;;;;25.15;24.58;100622.13;4958533;28;20031;-53
2021/10/12 14:50:17;;;;;;;5.50;4.60;;;;;;;25.13;24.22;100621.56;4951152;28;20373;-51
2021/10/12 14:52:43;;;;;;;10.15;5.63;;;;;;;25.13;23.89;100625.13;4933974;28;20039;-50
2021/10/12 14:56:46;;;;;;;7.80;4.55;;;;;;;25.19;24.32;100626.81;5095129;27;20141;-54
2021/10/12 14:59:15;;;;;;;6.80;5.18;;;;;;;25.17;25.18;100622.72;5090851;28;20542;-51
2021/10/12 15:01:41;;;;;;;8.75;4.45;;;;;;;25.17;25.04;100636.34;5000354;28;20045;-54
2021/10/12 16:12:46;;;;;;;15.20;10.80;;;;;;;10.98;43.18;100810.16;5048847;28;20543;-73
2021/10/12 16:20:53;;;;;;;16.17;9.33;;;;;;;9.38;48.15;100793.06;5049206;28;20047;-66
2021/10/12 16:23:18;;;;;;;14.95;8.70;;;;;;;9.17;48.83;100804.00;5049013;28;20535;-68
2021/10/12 16:25:44;;;;;;;11.40;8.70;;;;;;;8.98;49.02;100801.53;5049119;28;20055;-65
2021/10/12 16:28:09;;;;;;;16.47;11.33;;;;;;;8.89;49.97;100805.88;5049148;28;20041;-63
2021/10/12 16:30:35;;;;;;;17.13;9.33;;;;;;;8.81;49.82;100813.78;5048705;28;20492;-66
2021/10/12 16:33:01;;;;;;;17.97;10.03;;;;;;;8.78;49.78;100811.44;5048580;28;20033;-64
2021/10/12 16:35:26;;;;;;;16.40;10.03;;;;;;;8.74;50.17;100810.06;5030926;28;20444;-64
2021/10/12 16:37:52;;;;;;;15.40;9.47;;;;;;;8.58;50.43;100800.09;5030637;28;20033;-66
2021/10/12 16:40:17;;;;;;;15.00;9.57;;;;;;;8.54;51.08;100801.38;5048527;28;20419;-73
2021/10/12 16:42:46;;;;;;;11.60;8.53;;;;;;;8.64;51.33;100819.88;5048712;28;20034;-66
2021/10/12 16:45:13;;;;;;;12.73;8.77;;;;;;;8.61;50.46;100814.88;5049022;28;20599;-62
2021/10/12 16:47:38;;;;;;;19.30;9.67;;;;;;;8.59;51.13;100809.72;5048599;28;20037;-74
2021/10/12 16:50:04;;;;;;;18.93;10.07;;;;;;;8.55;51.47;100799.56;5014017;28;20552;-70
2021/10/12 16:52:30;;;;;;;15.87;9.97;;;;;;;8.58;51.15;100807.22;5048426;28;20036;-69
2021/10/12 16:54:55;;;;;;;18.67;9.50;;;;;;;8.56;51.16;100817.16;5030489;28;20044;-68
2021/10/12 16:57:21;;;;;;;19.80;8.63;;;;;;;8.55;51.19;100821.63;5048757;28;20037;-67
2021/10/12 16:59:47;;;;;;;16.00;8.87;;;;;;;8.51;52.10;100819.41;5048569;28;20091;-63
2021/10/12 17:02:13;;;;;;;14.77;9.27;;;;;;;8.53;51.56;100820.09;5048069;28;20037;-65
2021/10/12 17:04:42;;;;;;;17.37;9.10;;;;;;;8.49;51.69;100818.72;5048227;28;20041;-69
2021/10/12 17:07:08;;;;;;;17.33;9.33;;;;;;;8.47;51.97;100828.66;5048256;28;20037;-72
2021/10/12 17:09:34;;;;;;;15.17;9.50;;;;;;;8.45;52.42;100817.34;5047989;28;20033;-62
2021/10/12 17:11:59;;;;;;;20.03;10.37;;;;;;;8.42;52.06;100818.50;5029747;28;20065;-70
2021/10/12 17:14:24;;;;;;;16.43;9.33;;;;;;;8.34;52.66;100819.19;5010621;28;20068;-71
2021/10/12 17:16:50;;;;;;;14.57;9.73;;;;;;;8.29;52.40;100821.44;5010452;28;20042;-69
2021/10/12 17:19:16;;;;;;;15.77;9.97;;;;;;;8.29;52.96;100821.44;5027932;28;20041;-70
2021/10/12 17:21:45;;;;;;;14.57;9.83;;;;;;;8.20;53.00;100817.00;5025355;28;20120;-69
2021/10/12 17:24:12;;;;;;;15.40;9.30;;;;;;;8.19;54.18;100833.06;5014782;28;20037;-66
2021/10/12 17:26:37;;;;;;;21.37;10.80;;;;;;;8.15;53.75;100839.66;5014677;28;20034;-73
2021/10/12 17:29:03;;;;;;;17.70;11.07;;;;;;;8.12;54.88;100826.69;4997559;28;20088;-66
2021/10/12 17:31:29;;;;;;;15.03;9.60;;;;;;;8.07;54.02;100824.44;5014833;28;20136;-68
2021/10/12 17:33:54;;;;;;;12.83;9.60;;;;;;;8.05;54.97;100834.38;5014486;28;20046;-69
2021/10/12 17:36:20;;;;;;;18.20;9.87;;;;;;;8.00;55.00;100833.97;5014489;28;20069;-68
2021/10/12 17:38:46;;;;;;;16.53;11.23;;;;;;;7.65;54.99;100778.94;5014245;28;20049;-68
2021/10/12 17:41:13;;;;;;;15.43;9.27;;;;;;;8.00;55.10;100837.44;5014048;28;20041;-73
2021/10/12 17:43:41;;;;;;;19.47;10.03;;;;;;;7.98;55.43;100827.97;4998354;28;20046;-71
2021/10/12 17:46:06;;;;;;;17.90;9.63;;;;;;;7.96;55.47;100838.72;5014213;28;20132;-67
2021/10/12 17:48:32;;;;;;;19.07;10.27;;;;;;;7.94;56.29;100838.03;5016346;28;20452;-71
2021/10/12 17:50:59;;;;;;;18.23;9.83;;;;;;;7.92;56.62;100839.16;5016582;28;20041;-63
2021/10/12 17:53:31;;;;;;;17.83;9.70;;;;;;;7.86;56.17;100837.91;5014118;28;20048;-63
2021/10/12 17:55:56;;;;;;;15.30;9.90;;;;;;;7.71;56.33;100818.97;4996140;28;20029;-67
2021/10/12 17:58:22;;;;;;;19.13;10.73;;;;;;;7.80;56.50;100842.94;5012715;28;20101;-66
2021/10/12 18:00:47;;;;;;;15.87;9.90;;;;;;;7.67;56.96;100819.41;5013996;28;20198;-73
2021/10/12 18:03:26;;;;;;;25.23;11.40;;;;;;;7.72;56.68;100827.75;5013847;28;20421;-69
2021/10/12 18:06:02;;;;;;;18.33;10.40;;;;;;;7.69;56.94;100836.00;5013971;28;20038;-64
2021/10/12 18:08:28;;;;;;;17.70;11.33;;;;;;;7.65;57.78;100838.09;5012479;28;20045;-71
2021/10/12 18:10:53;;;;;;;18.63;11.20;;;;;;;7.58;57.63;100837.00;5011613;28;20058;-65
2021/10/12 18:13:19;;;;;;;14.83;9.90;;;;;;;7.53;58.27;100828.63;5014086;28;20121;-68
2021/10/12 18:15:44;;;;;;;16.93;10.07;;;;;;;7.56;57.95;100838.13;4996140;28;20050;-66
2021/10/12 18:18:09;;;;;;;18.27;10.63;;;;;;;7.42;57.85;100807.56;5012188;28;20046;-68
2021/10/12 18:20:35;;;;;;;21.77;12.20;;;;;;;7.57;58.30;100822.06;5012276;28;20064;-70
2021/10/12 18:23:00;;;;;;;21.63;11.93;;;;;;;7.56;58.39;100814.25;4994963;28;20437;-64
2021/10/12 18:25:26;;;;;;;23.60;12.70;;;;;;;7.63;58.37;100824.16;4996181;28;20354;-69
2021/10/12 18:27:51;;;;;;;20.23;11.27;;;;;;;7.65;58.21;100832.78;5012405;28;20444;-70
2021/10/12 18:30:17;;;;;;;23.30;11.70;;;;;;;7.59;58.41;100817.47;4979735;28;20042;-70
2021/10/12 18:32:42;;;;;;;20.80;10.73;;;;;;;7.55;58.21;100807.28;5013414;28;20033;-68
2021/10/12 18:35:08;;;;;;;19.87;11.93;;;;;;;7.60;58.45;100815.66;5012624;28;20042;-67
2021/10/12 18:37:34;;;;;;;19.50;10.87;;;;;;;7.57;58.63;100823.88;5014937;28;20038;-67
2021/10/12 18:39:59;;;;;;;16.67;11.17;;;;;;;7.52;59.42;100832.25;5013395;28;20073;-68
2021/10/12 18:42:25;;;;;;;23.30;9.77;;;;;;;7.47;59.43;100829.19;4995865;28;20038;-65
2021/10/12 18:44:50;;;;;;;14.73;11.20;;;;;;;7.42;59.79;100831.41;5013075;28;20048;-68
2021/10/12 18:47:15;;;;;;;21.33;11.70;;;;;;;7.35;59.52;100830.31;5012999;28;20042;-66
2021/10/12 18:49:41;;;;;;;23.50;12.90;;;;;;;7.29;59.71;100830.88;5013078;28;20041;-68
2021/10/12 18:52:06;;;;;;;20.17;11.20;;;;;;;7.28;59.95;100826.56;4995634;28;20493;-65
2021/10/12 18:54:32;;;;;;;18.57;11.57;;;;;;;7.31;60.32;100843.00;5013531;28;20045;-64
2021/10/12 18:56:57;;;;;;;19.33;11.50;;;;;;;7.26;59.84;100828.50;5013849;28;20262;-68
2021/10/12 18:59:22;;;;;;;23.03;12.07;;;;;;;7.29;60.09;100833.53;5013149;28;20070;-65
2021/10/12 19:01:48;;;;;;;17.00;11.23;;;;;;;7.25;60.50;100832.97;5012877;28;20042;-65
2021/10/12 19:04:13;;;;;;;18.47;10.97;;;;;;;7.26;60.51;100842.59;5012773;28;20040;-66
2021/10/12 19:06:39;;;;;;;20.20;10.80;;;;;;;7.24;60.22;100844.53;4995569;28;20037;-68
2021/10/12 19:09:04;;;;;;;16.77;11.47;;;;;;;7.25;60.64;100842.72;5013349;28;20045;-65
2021/10/12 19:11:30;;;;;;;20.90;11.33;;;;;;;7.24;60.71;100847.19;5014106;28;20393;-64
2021/10/12 19:13:55;;;;;;;19.57;11.03;;;;;;;7.21;60.34;100839.50;5012731;28;20053;-67
2021/10/12 19:16:21;;;;;;;16.97;11.73;;;;;;;7.22;60.35;100846.47;4994497;28;20478;-67
2021/10/12 19:18:47;;;;;;;18.80;12.33;;;;;;;7.28;61.01;100855.69;5011337;28;20120;-67
2021/10/12 19:21:17;;;;;;;16.80;9.83;;;;;;;7.28;60.44;100856.53;5011029;28;20436;-65
2021/10/12 19:23:46;;;;;;;17.37;10.40;;;;;;;7.29;60.37;100857.38;5011379;28;20754;-66
2021/10/12 19:26:13;;;;;;;18.03;11.20;;;;;;;7.22;60.45;100853.56;5011897;28;20076;-66
2021/10/12 19:28:39;;;;;;;18.70;13.30;;;;;;;7.23;60.58;100852.59;5012647;28;20050;-66
2021/10/12 19:31:06;;;;;;;16.90;10.47;;;;;;;7.26;60.44;100853.19;5012410;28;20041;-65
2021/10/12 19:33:32;;;;;;;20.03;11.30;;;;;;;7.24;60.89;100856.94;4994689;28;20132;-66
2021/10/12 19:36:00;;;;;;;18.10;10.97;;;;;;;7.26;60.56;100858.47;4994924;28;20521;-67
2021/10/12 19:38:26;;;;;;;15.97;11.00;;;;;;;7.19;60.68;100856.50;5012261;28;20034;-66
2021/10/12 19:40:53;;;;;;;15.53;11.33;;;;;;;7.20;61.26;100874.06;5011872;28;20096;-66
2021/10/12 19:43:20;;;;;;;17.10;10.37;;;;;;;7.10;60.86;100858.19;4994520;28;20104;-66
2021/10/12 19:45:45;;;;;;;15.73;9.93;;;;;;;7.07;61.38;100861.09;5011676;28;20088;-66
2021/10/12 19:48:11;;;;;;;17.97;11.43;;;;;;;7.06;61.79;100865.56;5012690;28;20038;-66
2021/10/12 19:50:41;;;;;;;15.20;10.00;;;;;;;7.03;61.43;100862.34;5012231;28;20045;-66
2021/10/12 19:53:08;;;;;;;15.57;10.03;;;;;;;7.03;61.84;100865.84;5012026;28;20401;-65
2021/10/12 19:55:33;;;;;;;18.23;11.33;;;;;;;7.05;61.81;100863.91;5012169;28;20034;-67
2021/10/12 19:57:59;;;;;;;15.47;10.43;;;;;;;7.10;61.42;100869.59;5012020;28;20477;-66
2021/10/12 20:00:25;;;;;;;17.30;10.17;;;;;;;7.12;61.17;100861.53;5011795;28;20037;-66
2021/10/12 20:05:35;;;;;;;20.23;10.63;;;;;;;7.25;60.50;100866.56;5011896;28;20040;-67
2021/10/12 20:08:01;;;;;;;17.93;10.87;;;;;;;7.33;60.90;100872.00;5011767;28;20034;-65
2021/10/12 20:10:26;;;;;;;17.43;10.27;;;;;;;7.32;60.27;100867.69;5011383;28;20148;-66
2021/10/12 20:12:51;;;;;;;15.43;10.13;;;;;;;7.34;60.72;100871.88;5011867;28;20030;-67
2021/10/12 20:15:17;;;;;;;17.50;10.40;;;;;;;7.33;60.69;100872.84;5012002;28;20121;-67
2021/10/12 20:17:42;;;;;;;15.30;10.13;;;;;;;7.35;61.20;100872.69;5012149;28;20042;-66
2021/10/12 20:20:09;;;;;;;14.87;10.80;;;;;;;7.32;61.66;100871.16;5012033;28;20081;-68
2021/10/12 20:22:41;;;;;;;14.87;10.60;;;;;;;7.31;60.83;100873.97;5012038;28;20122;-68
2021/10/12 20:25:09;;;;;;;12.47;10.30;;;;;;;7.22;61.31;100865.00;5011922;28;20060;-67
2021/10/12 20:27:35;;;;;;;16.47;11.10;;;;;;;7.23;61.50;100863.19;5011899;28;20025;-67
2021/10/12 20:30:01;;;;;;;16.07;10.10;;;;;;;7.12;61.82;100862.38;5011801;28;20038;-66
2021/10/12 20:32:28;;;;;;;16.53;11.17;;;;;;;7.14;61.88;100871.00;5011891;28;20494;-66
2021/10/12 20:34:54;;;;;;;31.33;11.90;;;;;;;7.12;61.97;100867.66;5011757;28;20049;-67
2021/10/12 20:37:20;;;;;;;14.47;10.57;;;;;;;7.07;61.84;100854.00;5011823;28;20421;-67
2021/10/12 20:39:45;;;;;;;16.10;10.30;;;;;;;7.12;62.01;100877.41;5011723;28;20152;-67
2021/10/12 20:42:11;;;;;;;17.90;11.40;;;;;;;7.09;61.76;100860.00;5011701;28;20045;-67
2021/10/12 20:44:38;;;;;;;17.20;11.43;;;;;;;7.08;62.02;100849.53;5011621;28;20034;-66
2021/10/12 20:47:03;;;;;;;18.13;11.47;;;;;;;7.14;61.82;100860.41;5011757;28;20048;-66
2021/10/12 20:49:29;;;;;;;15.73;11.10;;;;;;;7.14;62.04;100855.13;5011689;28;20125;-65
2021/10/12 20:51:54;;;;;;;16.30;10.77;;;;;;;7.14;62.03;100855.13;5011561;28;20033;-66
2021/10/12 20:54:20;;;;;;;16.73;10.87;;;;;;;7.19;62.27;100859.16;5011605;28;20125;-66
2021/10/12 20:56:45;;;;;;;19.33;11.47;;;;;;;6.90;61.65;100808.81;5011401;28;20468;-66
2021/10/12 20:59:12;;;;;;;15.27;10.17;;;;;;;7.15;61.42;100856.78;5015248;28;20121;-67
2021/10/12 21:01:38;;;;;;;19.30;11.27;;;;;;;7.11;62.06;100847.44;5015308;28;20064;-65
2021/10/12 21:04:04;;;;;;;21.33;11.77;;;;;;;7.11;61.91;100850.09;5015173;28;20125;-65
2021/10/12 21:06:29;;;;;;;15.47;10.73;;;;;;;7.02;62.20;100856.22;5015081;28;20473;-64
2021/10/12 21:08:54;;;;;;;15.60;9.60;;;;;;;7.03;62.71;100862.34;5014958;28;20033;-67
2021/10/12 21:11:20;;;;;;;18.10;11.50;;;;;;;6.96;62.45;100862.06;5014833;28;20108;-69
2021/10/12 21:13:45;;;;;;;15.57;10.97;;;;;;;6.90;62.85;100861.75;5015249;28;20034;-65
2021/10/12 21:16:11;;;;;;;19.57;10.67;;;;;;;6.88;62.61;100859.25;5015229;28;20044;-66
2021/10/12 21:18:36;;;;;;;18.03;11.63;;;;;;;6.60;63.08;100815.03;5015205;28;20038;-68
2021/10/12 21:21:03;;;;;;;24.63;12.57;;;;;;;6.69;63.47;100827.47;5014964;28;20041;-68
2021/10/12 21:23:28;;;;;;;18.50;11.93;;;;;;;6.71;63.99;100846.69;5014563;28;20623;-66
2021/10/12 21:25:53;;;;;;;19.70;13.23;;;;;;;6.72;63.84;100856.31;5014816;28;20128;-65
2021/10/12 21:28:19;;;;;;;20.40;12.17;;;;;;;6.62;64.07;100848.31;5014980;28;20662;-67
2021/10/12 21:30:45;;;;;;;17.37;11.77;;;;;;;6.51;64.10;100840.50;5014535;28;20061;-66
2021/10/12 21:33:10;;;;;;;17.30;12.47;;;;;;;6.61;64.38;100864.34;5014832;28;20045;-66
2021/10/12 21:35:36;;;;;;;23.67;11.70;;;;;;;6.56;64.06;100858.63;5014721;28;20032;-65
2021/10/12 21:38:06;;;;;;;18.10;11.23;;;;;;;6.59;64.12;100863.63;5014441;28;20475;-66
2021/10/12 21:40:33;;;;;;;21.17;11.33;;;;;;;6.47;65.03;100855.81;5014706;28;20033;-66
2021/10/12 21:42:59;;;;;;;19.87;11.57;;;;;;;6.53;64.77;100868.50;5014627;28;20042;-66
2021/10/12 21:45:25;;;;;;;22.07;11.20;;;;;;;6.52;64.75;100864.19;5014532;28;20037;-64
2021/10/12 21:47:51;;;;;;;19.07;11.83;;;;;;;6.41;64.75;100839.63;4997151;28;20045;-66
2021/10/12 21:50:17;;;;;;;15.30;11.23;;;;;;;6.54;64.13;100853.47;5014705;28;20065;-67
2021/10/12 21:52:42;;;;;;;16.30;11.60;;;;;;;6.45;64.08;100833.94;5014318;28;20036;-66
2021/10/12 21:55:08;;;;;;;19.57;10.37;;;;;;;6.52;64.52;100850.94;4996590;28;20455;-66
2021/10/12 21:57:34;;;;;;;21.67;11.03;;;;;;;6.59;64.82;100858.34;4996750;28;20034;-66
2021/10/12 22:00:00;;;;;;;19.80;12.03;;;;;;;6.56;64.55;100851.50;5014177;28;20177;-65
2021/10/12 22:02:26;;;;;;;18.93;11.77;;;;;;;6.51;65.00;100849.28;5014413;28;20120;-65
2021/10/12 22:04:51;;;;;;;20.00;11.83;;;;;;;6.52;64.59;100860.69;5014320;28;20033;-64
2021/10/12 22:07:17;;;;;;;19.97;12.93;;;;;;;6.44;64.56;100849.94;5014031;28;20038;-64
2021/10/12 22:09:42;;;;;;;23.97;15.00;;;;;;;6.39;65.11;100847.72;5013799;28;20564;-66
2021/10/12 22:12:08;;;;;;;22.30;14.37;;;;;;;6.38;65.08;100856.63;5014056;28;20076;-66
2021/10/12 22:14:34;;;;;;;17.13;13.20;;;;;;;6.37;64.97;100865.53;5014304;28;20038;-64
2021/10/12 22:16:59;;;;;;;16.67;13.23;;;;;;;6.35;65.45;100862.16;5013982;28;20030;-65
2021/10/12 22:19:25;;;;;;;18.13;13.27;;;;;;;6.31;65.64;100850.16;5014253;28;20045;-66
2021/10/12 22:21:50;;;;;;;17.93;12.13;;;;;;;6.29;65.59;100849.47;5013758;28;20122;-67
2021/10/12 22:24:15;;;;;;;17.93;11.30;;;;;;;6.34;65.50;100864.94;5013590;28;20037;-65